Time;durP1;ratioP1;P1;durP2;ratioP2;P2;SDS_P1;SDS_P2;PMS_P1;PMS_P2;Temp;Humidity;BMP_temperature;BMP_pressure;BME280_temperature;BME280_humidity;BME280_pressure;Samples;Min_cycle;Max_cycle;Signal;HPM_P1;HPM_P2
2023/10/05 05:22:26;;;;;;;1999.90;999.90;;;;;;;;;;6171834;22;1327949;-75
2023/10/05 05:24:53;;;;;;;1999.90;999.90;;;;;;;;;;6183107;23;20507;-68
2023/10/05 05:29:46;;;;;;;1999.90;999.90;;;;;;;;;;6193222;23;20786;-66
2023/10/05 05:32:13;;;;;;;1999.90;999.90;;;;;;;;;;6182960;23;20009;-69
2023/10/05 05:34:42;;;;;;;1999.90;999.90;;;;;;;;;;6182557;23;20009;-68
2023/10/05 05:37:28;;;;;;;1999.90;999.90;;;;;;;;;;6155398;23;20012;-68
2023/10/05 05:39:54;;;;;;;1999.90;999.90;;;;;;;;;;6156180;23;20488;-67
2023/10/05 05:42:20;;;;;;;1999.90;999.90;;;;;;;;;;6155637;23;20008;-68
2023/10/05 05:44:46;;;;;;;1999.90;999.90;;;;;;;;;;6182302;23;20072;-65
2023/10/05 05:47:14;;;;;;;1999.90;999.90;;;;;;;;;;6182596;23;20008;-65
2023/10/05 05:49:46;;;;;;;1999.90;999.90;;;;;;;;;;6184197;23;20001;-66
2023/10/05 05:52:12;;;;;;;1999.90;999.90;;;;;;;;;;6182457;23;20512;-67
2023/10/05 05:54:39;;;;;;;1999.90;999.90;;;;;;;;;;6182422;23;20399;-66
2023/10/05 05:57:12;;;;;;;1999.90;999.90;;;;;;;;;;6183029;23;20001;-67
2023/10/05 05:59:39;;;;;;;1999.90;999.90;;;;;;;;;;6182456;23;20005;-66
2023/10/05 06:02:08;;;;;;;1999.90;999.90;;;;;;;;;;6182442;23;20413;-67
2023/10/05 06:04:35;;;;;;;1999.90;999.90;;;;;;;;;;6182656;23;20723;-65
2023/10/05 06:07:04;;;;;;;1999.90;999.90;;;;;;;;;;6182288;23;20007;-66
2023/10/05 06:09:33;;;;;;;1999.90;999.90;;;;;;;;;;6182624;23;20001;-65
2023/10/05 06:12:05;;;;;;;1999.90;999.90;;;;;;;;;;6182536;23;20025;-66
2023/10/05 06:14:34;;;;;;;1999.90;999.90;;;;;;;;;;6182536;23;20001;-65
2023/10/05 06:17:00;;;;;;;1999.90;999.90;;;;;;;;;;6182580;23;20008;-65
2023/10/05 06:19:27;;;;;;;1999.90;999.90;;;;;;;;;;6156423;23;20507;-67
2023/10/05 06:21:54;;;;;;;1999.90;999.90;;;;;;;;;;6156430;23;20001;-66
2023/10/05 06:24:20;;;;;;;1999.90;999.90;;;;;;;;;;6130655;23;20055;-67
2023/10/05 06:26:48;;;;;;;1999.90;999.90;;;;;;;;;;6183352;23;20545;-65
2023/10/05 06:29:14;;;;;;;1999.90;999.90;;;;;;;;;;6182173;23;20418;-66
2023/10/05 06:31:43;;;;;;;1999.90;999.90;;;;;;;;;;6182862;23;20002;-66
2023/10/05 06:34:10;;;;;;;1999.90;999.90;;;;;;;;;;6183446;23;20432;-68
2023/10/05 06:36:42;;;;;;;1999.90;999.90;;;;;;;;;;6182406;23;20421;-68
2023/10/05 06:39:18;;;;;;;1999.90;999.90;;;;;;;;;;6182157;23;20009;-65
2023/10/05 06:41:45;;;;;;;1999.90;999.90;;;;;;;;;;6182481;23;19997;-72
2023/10/05 06:44:11;;;;;;;1999.90;999.90;;;;;;;;;;6154854;23;20013;-66
2023/10/05 06:46:40;;;;;;;1999.90;999.90;;;;;;;;;;6182589;23;20592;-70
2023/10/05 06:49:06;;;;;;;1999.90;999.90;;;;;;;;;;6155878;23;20017;-70
2023/10/05 06:51:32;;;;;;;1999.90;999.90;;;;;;;;;;6155249;23;20143;-69
2023/10/05 06:53:58;;;;;;;1999.90;999.90;;;;;;;;;;6182215;23;20013;-69
2023/10/05 06:56:26;;;;;;;1999.90;999.90;;;;;;;;;;6181205;23;20086;-70
2023/10/05 06:58:52;;;;;;;1999.90;999.90;;;;;;;;;;6182047;23;20311;-69
2023/10/05 07:01:20;;;;;;;1999.90;999.90;;;;;;;;;;6182231;23;19997;-70
2023/10/05 07:03:52;;;;;;;1999.90;999.90;;;;;;;;;;6182416;23;20381;-69
2023/10/05 07:06:22;;;;;;;1999.90;999.90;;;;;;;;;;6184050;23;20001;-69
2023/10/05 07:08:49;;;;;;;1999.90;999.90;;;;;;;;;;6184104;23;20083;-69
2023/10/05 07:11:16;;;;;;;1999.90;999.90;;;;;;;;;;6183971;23;20001;-68
2023/10/05 07:13:42;;;;;;;1999.90;999.90;;;;;;;;;;6184747;23;20032;-68
2023/10/05 07:16:09;;;;;;;1999.90;999.90;;;;;;;;;;6184368;23;20009;-66
2023/10/05 07:18:35;;;;;;;1999.90;999.90;;;;;;;;;;6184299;23;20001;-69
2023/10/05 07:21:04;;;;;;;1999.90;999.90;;;;;;;;;;6183643;23;20040;-71
2023/10/05 07:23:31;;;;;;;1999.90;999.90;;;;;;;;;;6183796;23;20040;-70
2023/10/05 07:25:58;;;;;;;1999.90;999.90;;;;;;;;;;6184550;23;20005;-70
2023/10/05 07:28:25;;;;;;;1999.90;999.90;;;;;;;;;;6184189;23;20004;-71
2023/10/05 07:30:51;;;;;;;1999.90;999.90;;;;;;;;;;6183641;23;20319;-71
2023/10/05 07:33:17;;;;;;;1999.90;999.90;;;;;;;;;;6184341;23;20425;-70
2023/10/05 07:35:43;;;;;;;1999.90;999.90;;;;;;;;;;6184528;23;20001;-70
2023/10/05 07:38:14;;;;;;;1999.90;999.90;;;;;;;;;;6184613;23;20000;-70
2023/10/05 07:40:42;;;;;;;1999.90;999.90;;;;;;;;;;6184654;23;20012;-68
2023/10/05 07:43:08;;;;;;;1999.90;999.90;;;;;;;;;;6184410;23;20080;-67
2023/10/05 07:45:34;;;;;;;1999.90;999.90;;;;;;;;;;6184466;23;20005;-69
2023/10/05 07:48:03;;;;;;;1999.90;999.90;;;;;;;;;;6184555;23;20016;-67
2023/10/05 07:50:29;;;;;;;1999.90;999.90;;;;;;;;;;6184944;23;20027;-66
2023/10/05 07:52:57;;;;;;;1999.90;999.90;;;;;;;;;;6184354;23;20095;-68
2023/10/05 07:55:23;;;;;;;1999.90;999.90;;;;;;;;;;6184087;23;20009;-67
2023/10/05 07:57:51;;;;;;;1999.90;999.90;;;;;;;;;;6183295;23;20052;-68
2023/10/05 08:00:20;;;;;;;1999.90;999.90;;;;;;;;;;6183360;23;20072;-71
2023/10/05 08:02:46;;;;;;;1999.90;999.90;;;;;;;;;;6183722;23;20092;-69
2023/10/05 08:05:12;;;;;;;1999.90;999.90;;;;;;;;;;6157330;23;20017;-66
2023/10/05 08:07:38;;;;;;;1999.90;999.90;;;;;;;;;;6183265;23;20008;-65
2023/10/05 08:10:06;;;;;;;1999.90;999.90;;;;;;;;;;6183700;23;20001;-66
2023/10/05 08:12:32;;;;;;;1999.90;999.90;;;;;;;;;;6183089;23;20004;-66
2023/10/05 08:14:59;;;;;;;1999.90;999.90;;;;;;;;;;6182841;23;19997;-66
2023/10/05 08:17:26;;;;;;;1999.90;999.90;;;;;;;;;;6183441;23;20398;-67
2023/10/05 08:19:52;;;;;;;1999.90;999.90;;;;;;;;;;6183747;23;19997;-70
2023/10/05 08:22:20;;;;;;;1999.90;999.90;;;;;;;;;;6181954;23;20083;-66
2023/10/05 08:24:47;;;;;;;1999.90;999.90;;;;;;;;;;6183182;23;20028;-64
2023/10/05 08:27:14;;;;;;;1999.90;999.90;;;;;;;;;;6183798;23;20080;-66
2023/10/05 08:29:40;;;;;;;1999.90;999.90;;;;;;;;;;6182724;23;20492;-65
2023/10/05 08:32:07;;;;;;;1999.90;999.90;;;;;;;;;;6183503;23;20430;-66
2023/10/05 08:34:33;;;;;;;1999.90;999.90;;;;;;;;;;6183842;23;20009;-71
2023/10/05 08:37:01;;;;;;;1999.90;999.90;;;;;;;;;;6183392;23;20414;-67
2023/10/05 08:39:30;;;;;;;1999.90;999.90;;;;;;;;;;6183273;23;20032;-70
2023/10/05 08:42:06;;;;;;;1999.90;999.90;;;;;;;;;;6183398;23;20097;-70
2023/10/05 08:44:41;;;;;;;1999.90;999.90;;;;;;;;;;6183047;23;20111;-71
2023/10/05 08:47:13;;;;;;;1999.90;999.90;;;;;;;;;;6183892;23;20008;-70
2023/10/05 08:49:43;;;;;;;1999.90;999.90;;;;;;;;;;6183459;23;20329;-69
2023/10/05 08:52:13;;;;;;;1999.90;999.90;;;;;;;;;;6183257;23;20063;-68
2023/10/05 08:54:40;;;;;;;1999.90;999.90;;;;;;;;;;6182643;23;20005;-68
2023/10/05 08:57:10;;;;;;;1999.90;999.90;;;;;;;;;;6183154;23;20079;-69
2023/10/05 08:59:45;;;;;;;1999.90;999.90;;;;;;;;;;6183198;23;20013;-67
2023/10/05 09:02:21;;;;;;;1999.90;999.90;;;;;;;;;;6182770;23;20452;-65
2023/10/05 09:04:55;;;;;;;1999.90;999.90;;;;;;;;;;6181619;23;20024;-66
2023/10/05 09:07:34;;;;;;;1999.90;999.90;;;;;;;;;;6182705;23;20023;-64
2023/10/05 09:10:00;;;;;;;1999.90;999.90;;;;;;;;;;6183016;23;20012;-66
2023/10/05 09:12:38;;;;;;;1999.90;999.90;;;;;;;;;;6183226;23;20302;-66
2023/10/05 09:15:19;;;;;;;1999.90;999.90;;;;;;;;;;6183159;23;20497;-67
2023/10/05 09:17:57;;;;;;;1999.90;999.90;;;;;;;;;;6183083;23;20440;-66
2023/10/05 09:20:31;;;;;;;1999.90;999.90;;;;;;;;;;6182459;23;20076;-65
2023/10/05 09:22:57;;;;;;;1999.90;999.90;;;;;;;;;;6181908;23;20029;-65
2023/10/05 09:25:27;;;;;;;1999.90;999.90;;;;;;;;;;6182420;23;20037;-65
2023/10/05 09:27:59;;;;;;;1999.90;999.90;;;;;;;;;;6181747;23;20005;-64
2023/10/05 09:30:30;;;;;;;1999.90;999.90;;;;;;;;;;6183303;23;20005;-65
2023/10/05 09:33:18;;;;;;;1999.90;999.90;;;;;;;;;;6156714;23;20049;-64
2023/10/05 09:35:46;;;;;;;1999.90;999.90;;;;;;;;;;6183337;23;20087;-65
2023/10/05 09:38:15;;;;;;;1999.90;999.90;;;;;;;;;;6183833;23;20004;-65
2023/10/05 09:40:46;;;;;;;1999.90;999.90;;;;;;;;;;6183261;23;20067;-64
2023/10/05 09:43:14;;;;;;;1999.90;999.90;;;;;;;;;;6183830;23;20001;-65
2023/10/05 09:45:43;;;;;;;1999.90;999.90;;;;;;;;;;6156316;23;20444;-66
2023/10/05 09:48:09;;;;;;;1999.90;999.90;;;;;;;;;;6181330;23;20001;-64
2023/10/05 09:50:38;;;;;;;1999.90;999.90;;;;;;;;;;6181479;23;20054;-65
2023/10/05 09:53:06;;;;;;;1999.90;999.90;;;;;;;;;;6182447;23;20005;-64
2023/10/05 09:55:33;;;;;;;1999.90;999.90;;;;;;;;;;6182922;23;20024;-64
2023/10/05 09:58:05;;;;;;;1999.90;999.90;;;;;;;;;;6183300;23;20474;-64
2023/10/05 10:03:04;;;;;;;1999.90;999.90;;;;;;;;;;6193143;23;20092;-67
2023/10/05 10:05:35;;;;;;;1999.90;999.90;;;;;;;;;;6182033;23;20033;-67
2023/10/05 10:08:12;;;;;;;1999.90;999.90;;;;;;;;;;6182478;23;20005;-67
2023/10/05 10:10:40;;;;;;;1999.90;999.90;;;;;;;;;;6182030;23;20322;-66
2023/10/05 10:13:11;;;;;;;1999.90;999.90;;;;;;;;;;6182171;23;20096;-64
2023/10/05 10:15:49;;;;;;;1999.90;999.90;;;;;;;;;;6182642;23;20001;-68
2023/10/05 10:18:15;;;;;;;1999.90;999.90;;;;;;;;;;6182588;23;20076;-65
2023/10/05 10:20:48;;;;;;;1999.90;999.90;;;;;;;;;;6181678;23;20028;-68
2023/10/05 10:23:19;;;;;;;1999.90;999.90;;;;;;;;;;6181215;23;20337;-68
2023/10/05 10:25:46;;;;;;;1999.90;999.90;;;;;;;;;;6180483;23;20059;-66
2023/10/05 10:28:15;;;;;;;1999.90;999.90;;;;;;;;;;6182439;23;20426;-67
2023/10/05 10:30:48;;;;;;;1999.90;999.90;;;;;;;;;;6182110;23;20028;-67
2023/10/05 10:33:30;;;;;;;1999.90;999.90;;;;;;;;;;6181937;23;20015;-67
2023/10/05 10:35:57;;;;;;;1999.90;999.90;;;;;;;;;;6181433;23;20398;-66
2023/10/05 10:38:24;;;;;;;1999.90;999.90;;;;;;;;;;6181765;23;20417;-67
2023/10/05 10:41:15;;;;;;;1999.90;999.90;;;;;;;;;;6181951;23;20032;-66
2023/10/05 10:43:48;;;;;;;1999.90;999.90;;;;;;;;;;6181224;23;20342;-67
2023/10/05 10:46:20;;;;;;;1999.90;999.90;;;;;;;;;;6181212;23;20001;-66
2023/10/05 10:49:07;;;;;;;1999.90;999.90;;;;;;;;;;6181505;23;20055;-66
2023/10/05 10:51:37;;;;;;;1999.90;999.90;;;;;;;;;;6181629;23;20065;-66
2023/10/05 10:54:14;;;;;;;1999.90;999.90;;;;;;;;;;6182158;23;20422;-68
2023/10/05 10:56:44;;;;;;;1999.90;999.90;;;;;;;;;;6181413;23;20100;-67
2023/10/05 10:59:20;;;;;;;1999.90;999.90;;;;;;;;;;6181844;23;20033;-65
2023/10/05 11:01:59;;;;;;;1999.90;999.90;;;;;;;;;;6182057;23;20028;-68
2023/10/05 11:04:36;;;;;;;1999.90;999.90;;;;;;;;;;6181709;23;20067;-67
2023/10/05 11:07:10;;;;;;;1999.90;999.90;;;;;;;;;;6182021;23;20493;-67
2023/10/05 11:09:46;;;;;;;1999.90;999.90;;;;;;;;;;6181785;23;20314;-65
2023/10/05 11:12:16;;;;;;;1999.90;999.90;;;;;;;;;;6181494;23;20009;-68
2023/10/05 11:14:43;;;;;;;1999.90;999.90;;;;;;;;;;6181357;23;20005;-68
2023/10/05 11:17:34;;;;;;;1999.90;999.90;;;;;;;;;;6180831;23;20005;-67
2023/10/05 11:20:14;;;;;;;1999.90;999.90;;;;;;;;;;6181516;23;20005;-67
2023/10/05 11:22:43;;;;;;;1999.90;999.90;;;;;;;;;;6181364;23;20005;-67
2023/10/05 11:25:16;;;;;;;1999.90;999.90;;;;;;;;;;6181659;23;20071;-67
2023/10/05 11:27:44;;;;;;;1999.90;999.90;;;;;;;;;;6182175;23;20008;-67
2023/10/05 11:30:18;;;;;;;1999.90;999.90;;;;;;;;;;6181824;23;20063;-67
2023/10/05 11:32:44;;;;;;;1999.90;999.90;;;;;;;;;;6182201;23;20054;-67
2023/10/05 11:35:13;;;;;;;1999.90;999.90;;;;;;;;;;6182571;23;20005;-67
2023/10/05 11:37:39;;;;;;;1999.90;999.90;;;;;;;;;;6182050;23;20434;-68
2023/10/05 11:40:20;;;;;;;1999.90;999.90;;;;;;;;;;6182434;23;20005;-70
2023/10/05 11:42:48;;;;;;;1999.90;999.90;;;;;;;;;;6182027;23;20318;-66
2023/10/05 11:45:18;;;;;;;1999.90;999.90;;;;;;;;;;6182311;23;20017;-70
2023/10/05 11:47:51;;;;;;;1999.90;999.90;;;;;;;;;;6181656;23;20422;-68
2023/10/05 11:50:34;;;;;;;1999.90;999.90;;;;;;;;;;6181614;23;20005;-66
2023/10/05 11:53:10;;;;;;;1999.90;999.90;;;;;;;;;;6183706;23;20005;-69
2023/10/05 11:55:36;;;;;;;1999.90;999.90;;;;;;;;;;6184364;23;20036;-67
2023/10/05 11:58:02;;;;;;;1999.90;999.90;;;;;;;;;;6183262;23;20008;-67
2023/10/05 12:00:31;;;;;;;1999.90;999.90;;;;;;;;;;6184569;23;20074;-66
2023/10/05 12:02:57;;;;;;;1999.90;999.90;;;;;;;;;;6183941;23;20059;-67
2023/10/05 12:05:25;;;;;;;1999.90;999.90;;;;;;;;;;6183670;23;20017;-69
2023/10/05 12:07:51;;;;;;;1999.90;999.90;;;;;;;;;;6183754;23;20052;-65
2023/10/05 12:10:17;;;;;;;1999.90;999.90;;;;;;;;;;6183832;23;20005;-65
2023/10/05 12:12:50;;;;;;;1999.90;999.90;;;;;;;;;;6183860;23;20001;-65
2023/10/05 12:15:17;;;;;;;1999.90;999.90;;;;;;;;;;6183697;23;20005;-65
2023/10/05 12:17:45;;;;;;;1999.90;999.90;;;;;;;;;;6183074;23;20747;-67
2023/10/05 12:20:14;;;;;;;1999.90;999.90;;;;;;;;;;6181327;23;19997;-67
2023/10/05 12:22:41;;;;;;;1999.90;999.90;;;;;;;;;;6181728;23;20016;-66
2023/10/05 12:25:07;;;;;;;1999.90;999.90;;;;;;;;;;6183073;23;20068;-68
2023/10/05 12:27:35;;;;;;;1999.90;999.90;;;;;;;;;;6182364;23;19997;-67
2023/10/05 12:30:02;;;;;;;1999.90;999.90;;;;;;;;;;6182999;23;20009;-69
2023/10/05 12:32:29;;;;;;;1999.90;999.90;;;;;;;;;;6183019;23;20004;-67
2023/10/05 12:34:59;;;;;;;1999.90;999.90;;;;;;;;;;6183220;23;20009;-65
2023/10/05 12:37:25;;;;;;;1999.90;999.90;;;;;;;;;;6182776;23;20009;-66
2023/10/05 12:39:51;;;;;;;1999.90;999.90;;;;;;;;;;6182908;23;20010;-67
2023/10/05 12:42:17;;;;;;;1999.90;999.90;;;;;;;;;;6182682;23;20405;-65
2023/10/05 12:44:43;;;;;;;1999.90;999.90;;;;;;;;;;6182742;23;20118;-68
2023/10/05 12:47:09;;;;;;;1999.90;999.90;;;;;;;;;;6182548;23;20011;-67
2023/10/05 12:49:36;;;;;;;1999.90;999.90;;;;;;;;;;6182693;23;20052;-68
2023/10/05 12:52:02;;;;;;;1999.90;999.90;;;;;;;;;;6182760;23;20012;-66
2023/10/05 12:54:28;;;;;;;1999.90;999.90;;;;;;;;;;6183380;23;20051;-66
2023/10/05 12:56:55;;;;;;;1999.90;999.90;;;;;;;;;;6183649;23;20457;-67
2023/10/05 12:59:21;;;;;;;1999.90;999.90;;;;;;;;;;6183453;23;20075;-68
2023/10/05 13:01:48;;;;;;;1999.90;999.90;;;;;;;;;;6184079;23;19997;-66
2023/10/05 13:04:15;;;;;;;1999.90;999.90;;;;;;;;;;6183423;23;20060;-68
2023/10/05 13:06:42;;;;;;;1999.90;999.90;;;;;;;;;;6183204;23;20084;-67
2023/10/05 13:09:11;;;;;;;1999.90;999.90;;;;;;;;;;6180697;23;20048;-67
2023/10/05 13:11:44;;;;;;;1999.90;999.90;;;;;;;;;;6181486;23;19997;-66
2023/10/05 13:14:14;;;;;;;1999.90;999.90;;;;;;;;;;6182168;23;20436;-69
2023/10/05 13:16:40;;;;;;;1999.90;999.90;;;;;;;;;;6182348;23;20321;-68
2023/10/05 13:19:09;;;;;;;1999.90;999.90;;;;;;;;;;6182370;23;20080;-69
2023/10/05 13:21:36;;;;;;;1999.90;999.90;;;;;;;;;;6181820;23;20401;-69
2023/10/05 13:24:02;;;;;;;1999.90;999.90;;;;;;;;;;6181791;23;20025;-66
2023/10/05 13:26:29;;;;;;;1999.90;999.90;;;;;;;;;;6182557;23;20005;-68
2023/10/05 13:28:59;;;;;;;1999.90;999.90;;;;;;;;;;6155998;23;20008;-66
2023/10/05 13:31:25;;;;;;;1999.90;999.90;;;;;;;;;;6182822;23;20052;-66
2023/10/05 13:33:54;;;;;;;1999.90;999.90;;;;;;;;;;6182869;23;20012;-65
2023/10/05 13:36:21;;;;;;;1999.90;999.90;;;;;;;;;;6182558;23;20414;-66
2023/10/05 13:38:48;;;;;;;1999.90;999.90;;;;;;;;;;6182838;23;20001;-66
2023/10/05 13:41:14;;;;;;;1999.90;999.90;;;;;;;;;;6182749;23;19997;-65
2023/10/05 13:43:41;;;;;;;1999.90;999.90;;;;;;;;;;6182209;23;20009;-64
2023/10/05 13:46:17;;;;;;;1999.90;999.90;;;;;;;;;;6182831;23;20005;-64
2023/10/05 13:48:43;;;;;;;1999.90;999.90;;;;;;;;;;6183036;23;20012;-68
2023/10/05 13:51:15;;;;;;;1999.90;999.90;;;;;;;;;;6182696;23;20009;-67
2023/10/05 13:53:54;;;;;;;1999.90;999.90;;;;;;;;;;6181219;23;20005;-63
2023/10/05 13:56:31;;;;;;;1999.90;999.90;;;;;;;;;;6182791;23;20436;-65
2023/10/05 13:59:01;;;;;;;1999.90;999.90;;;;;;;;;;6183112;23;20353;-66
2023/10/05 14:01:38;;;;;;;1999.90;999.90;;;;;;;;;;6182795;23;20009;-64
2023/10/05 14:04:15;;;;;;;1999.90;999.90;;;;;;;;;;6182287;23;20008;-64
2023/10/05 14:06:43;;;;;;;1999.90;999.90;;;;;;;;;;6182797;23;20325;-67
2023/10/05 14:09:10;;;;;;;1999.90;999.90;;;;;;;;;;6182181;23;20051;-66
2023/10/05 14:11:38;;;;;;;1999.90;999.90;;;;;;;;;;6182272;23;20425;-65
2023/10/05 14:14:04;;;;;;;1999.90;999.90;;;;;;;;;;6181564;23;20084;-63
2023/10/05 14:16:44;;;;;;;1999.90;999.90;;;;;;;;;;6181738;23;20109;-65
2023/10/05 14:19:10;;;;;;;1999.90;999.90;;;;;;;;;;6181179;23;20064;-66
2023/10/05 14:21:37;;;;;;;1999.90;999.90;;;;;;;;;;6181297;23;20004;-67
2023/10/05 14:24:03;;;;;;;1999.90;999.90;;;;;;;;;;6181770;23;20039;-66
2023/10/05 14:26:30;;;;;;;1999.90;999.90;;;;;;;;;;6182303;23;20001;-65
2023/10/05 14:28:56;;;;;;;1999.90;999.90;;;;;;;;;;6181823;23;20050;-66
2023/10/05 14:31:23;;;;;;;1999.90;999.90;;;;;;;;;;6181117;23;20001;-64
2023/10/05 14:33:50;;;;;;;1999.90;999.90;;;;;;;;;;6181666;23;20015;-64
2023/10/05 14:36:18;;;;;;;1999.90;999.90;;;;;;;;;;6181659;23;20005;-66
2023/10/05 14:38:44;;;;;;;1999.90;999.90;;;;;;;;;;6182168;23;20084;-66
2023/10/05 14:41:11;;;;;;;1999.90;999.90;;;;;;;;;;6182210;23;20008;-67
2023/10/05 14:43:44;;;;;;;1999.90;999.90;;;;;;;;;;6155943;23;20005;-66
2023/10/05 14:46:10;;;;;;;1999.90;999.90;;;;;;;;;;6181887;23;20008;-65
2023/10/05 14:48:40;;;;;;;1999.90;999.90;;;;;;;;;;6181862;23;20059;-65
2023/10/05 14:51:13;;;;;;;1999.90;999.90;;;;;;;;;;6155442;23;20697;-65
2023/10/05 14:53:39;;;;;;;1999.90;999.90;;;;;;;;;;6180603;23;20005;-67
2023/10/05 14:56:05;;;;;;;1999.90;999.90;;;;;;;;;;6182091;23;20091;-65
2023/10/05 14:58:32;;;;;;;1999.90;999.90;;;;;;;;;;6181724;23;20083;-65
2023/10/05 15:00:59;;;;;;;1999.90;999.90;;;;;;;;;;6182009;23;20005;-66
2023/10/05 15:03:25;;;;;;;1999.90;999.90;;;;;;;;;;6181919;23;20005;-65
2023/10/05 15:05:52;;;;;;;1999.90;999.90;;;;;;;;;;6181718;23;20005;-65
2023/10/05 15:08:18;;;;;;;1999.90;999.90;;;;;;;;;;6182165;23;20001;-64
2023/10/05 15:10:44;;;;;;;1999.90;999.90;;;;;;;;;;6182346;23;20457;-65
2023/10/05 15:13:10;;;;;;;1999.90;999.90;;;;;;;;;;6182210;23;20012;-65
2023/10/05 15:15:37;;;;;;;1999.90;999.90;;;;;;;;;;6154544;23;20028;-65
2023/10/05 15:18:07;;;;;;;1999.90;999.90;;;;;;;;;;6181634;23;20333;-65
2023/10/05 15:20:33;;;;;;;1999.90;999.90;;;;;;;;;;6181636;23;20005;-67
2023/10/05 15:22:59;;;;;;;1999.90;999.90;;;;;;;;;;6150146;23;20036;-65
2023/10/05 15:25:26;;;;;;;1999.90;999.90;;;;;;;;;;6181192;23;20013;-65
2023/10/05 15:27:53;;;;;;;1999.90;999.90;;;;;;;;;;6180950;23;20067;-65
2023/10/05 15:30:19;;;;;;;1999.90;999.90;;;;;;;;;;6183587;23;20005;-65
2023/10/05 15:32:49;;;;;;;1999.90;999.90;;;;;;;;;;6184217;23;20032;-65
2023/10/05 15:35:15;;;;;;;1999.90;999.90;;;;;;;;;;6184205;23;20024;-65
2023/10/05 15:37:45;;;;;;;1999.90;999.90;;;;;;;;;;6183816;23;20001;-66
2023/10/05 15:40:15;;;;;;;1999.90;999.90;;;;;;;;;;6157649;23;20008;-65
2023/10/05 15:42:45;;;;;;;1999.90;999.90;;;;;;;;;;6183157;23;20004;-65
2023/10/05 15:45:11;;;;;;;1999.90;999.90;;;;;;;;;;6183303;23;20114;-67
2023/10/05 15:47:42;;;;;;;1999.90;999.90;;;;;;;;;;6183304;23;19997;-66
2023/10/05 15:50:11;;;;;;;1999.90;999.90;;;;;;;;;;6183221;23;20011;-64
2023/10/05 15:52:38;;;;;;;1999.90;999.90;;;;;;;;;;6183400;23;20005;-66
2023/10/05 15:55:07;;;;;;;1999.90;999.90;;;;;;;;;;6182972;23;20096;-66
2023/10/05 15:57:33;;;;;;;1999.90;999.90;;;;;;;;;;6183659;23;20005;-65
2023/10/05 15:59:59;;;;;;;1999.90;999.90;;;;;;;;;;6183363;23;20005;-65
2023/10/05 16:02:25;;;;;;;1999.90;999.90;;;;;;;;;;6183701;23;20009;-64
2023/10/05 16:04:51;;;;;;;1999.90;999.90;;;;;;;;;;6183739;23;20035;-65
2023/10/05 16:07:17;;;;;;;1999.90;999.90;;;;;;;;;;6183528;23;19997;-63
2023/10/05 16:09:43;;;;;;;1999.90;999.90;;;;;;;;;;6183174;23;20009;-65
2023/10/05 16:12:09;;;;;;;1999.90;999.90;;;;;;;;;;6182966;23;20390;-68
2023/10/05 16:14:35;;;;;;;1999.90;999.90;;;;;;;;;;6183450;23;20509;-66
2023/10/05 16:17:02;;;;;;;1999.90;999.90;;;;;;;;;;6183665;23;20306;-67
2023/10/05 16:19:28;;;;;;;1999.90;999.90;;;;;;;;;;6182711;23;20322;-64
2023/10/05 16:21:54;;;;;;;1999.90;999.90;;;;;;;;;;6182764;23;20001;-67
2023/10/05 16:24:20;;;;;;;1999.90;999.90;;;;;;;;;;6182406;23;20021;-64
2023/10/05 16:26:46;;;;;;;1999.90;999.90;;;;;;;;;;6183095;23;20001;-66
2023/10/05 16:29:12;;;;;;;1999.90;999.90;;;;;;;;;;6181956;23;20009;-65
2023/10/05 16:31:39;;;;;;;1999.90;999.90;;;;;;;;;;6182785;23;20084;-64
2023/10/05 16:34:05;;;;;;;1999.90;999.90;;;;;;;;;;6183030;23;20005;-65
2023/10/05 16:36:31;;;;;;;1999.90;999.90;;;;;;;;;;6182466;23;20090;-65
2023/10/05 16:38:57;;;;;;;1999.90;999.90;;;;;;;;;;6181456;23;20075;-64
2023/10/05 16:41:24;;;;;;;1999.90;999.90;;;;;;;;;;6181185;23;20008;-67
2023/10/05 16:43:51;;;;;;;1999.90;999.90;;;;;;;;;;6182663;23;20425;-64
2023/10/05 16:46:17;;;;;;;1999.90;999.90;;;;;;;;;;6182563;23;20016;-64
2023/10/05 16:48:43;;;;;;;1999.90;999.90;;;;;;;;;;6182400;23;20444;-65
2023/10/05 16:51:10;;;;;;;1999.90;999.90;;;;;;;;;;6181619;23;20440;-65
2023/10/05 16:53:36;;;;;;;1999.90;999.90;;;;;;;;;;6180984;23;20022;-65
2023/10/05 16:56:03;;;;;;;1999.90;999.90;;;;;;;;;;6182787;23;20012;-65
2023/10/05 16:58:29;;;;;;;1999.90;999.90;;;;;;;;;;6181799;23;20098;-64
2023/10/05 17:00:55;;;;;;;1999.90;999.90;;;;;;;;;;6181081;23;20315;-64
2023/10/05 17:03:21;;;;;;;1999.90;999.90;;;;;;;;;;6181698;23;20005;-65
2023/10/05 17:05:48;;;;;;;1999.90;999.90;;;;;;;;;;6182544;23;20028;-64
2023/10/05 17:08:17;;;;;;;1999.90;999.90;;;;;;;;;;6181768;23;20005;-64
2023/10/05 17:10:43;;;;;;;1999.90;999.90;;;;;;;;;;6182555;23;20434;-63
2023/10/05 17:13:09;;;;;;;1999.90;999.90;;;;;;;;;;6181722;23;20060;-62
2023/10/05 17:15:35;;;;;;;1999.90;999.90;;;;;;;;;;6182587;23;20016;-65
2023/10/05 17:18:02;;;;;;;1999.90;999.90;;;;;;;;;;6181943;23;20001;-64
2023/10/05 17:20:28;;;;;;;1999.90;999.90;;;;;;;;;;6182232;23;20019;-64
2023/10/05 17:22:54;;;;;;;1999.90;999.90;;;;;;;;;;6181938;23;20001;-63
2023/10/05 17:25:23;;;;;;;1999.90;999.90;;;;;;;;;;6181067;23;20017;-64
2023/10/05 17:27:51;;;;;;;1999.90;999.90;;;;;;;;;;6181129;23;20037;-64
2023/10/05 17:30:17;;;;;;;1999.90;999.90;;;;;;;;;;6181508;23;20338;-64
2023/10/05 17:32:46;;;;;;;1999.90;999.90;;;;;;;;;;6182232;23;19997;-64
2023/10/05 17:35:21;;;;;;;1999.90;999.90;;;;;;;;;;6182563;23;20004;-64
2023/10/05 17:37:47;;;;;;;1999.90;999.90;;;;;;;;;;6182546;23;20009;-64
2023/10/05 17:40:13;;;;;;;1999.90;999.90;;;;;;;;;;6182885;23;20001;-64
2023/10/05 17:42:40;;;;;;;1999.90;999.90;;;;;;;;;;6182691;23;20501;-64
2023/10/05 17:45:09;;;;;;;1999.90;999.90;;;;;;;;;;6182301;23;20358;-64
2023/10/05 17:47:35;;;;;;;1999.90;999.90;;;;;;;;;;6182784;23;19997;-65
2023/10/05 17:50:02;;;;;;;1999.90;999.90;;;;;;;;;;6182491;23;20001;-66
2023/10/05 17:52:28;;;;;;;1999.90;999.90;;;;;;;;;;6182276;23;20009;-65
2023/10/05 17:54:54;;;;;;;1999.90;999.90;;;;;;;;;;6182206;23;20009;-64
2023/10/05 17:57:20;;;;;;;1999.90;999.90;;;;;;;;;;6182251;23;20005;-66
2023/10/05 17:59:47;;;;;;;1999.90;999.90;;;;;;;;;;6181912;23;20013;-66
2023/10/05 18:02:17;;;;;;;1999.90;999.90;;;;;;;;;;6182671;23;20078;-66
2023/10/05 18:04:43;;;;;;;1999.90;999.90;;;;;;;;;;6182797;23;20044;-65
2023/10/05 18:07:09;;;;;;;1999.90;999.90;;;;;;;;;;6182721;23;20047;-65
2023/10/05 18:09:35;;;;;;;1999.90;999.90;;;;;;;;;;6182502;23;20556;-65
2023/10/05 18:12:02;;;;;;;1999.90;999.90;;;;;;;;;;6181926;23;20072;-64
2023/10/05 18:14:28;;;;;;;1999.90;999.90;;;;;;;;;;6182512;23;20012;-63
2023/10/05 18:16:55;;;;;;;1999.90;999.90;;;;;;;;;;6182221;23;20236;-64
2023/10/05 18:19:21;;;;;;;1999.90;999.90;;;;;;;;;;6182683;23;20027;-65
2023/10/05 18:21:48;;;;;;;1999.90;999.90;;;;;;;;;;6155935;23;20059;-64
2023/10/05 18:24:14;;;;;;;1999.90;999.90;;;;;;;;;;6181568;23;20017;-65
2023/10/05 18:26:43;;;;;;;1999.90;999.90;;;;;;;;;;6182344;23;20036;-65
2023/10/05 18:29:12;;;;;;;1999.90;999.90;;;;;;;;;;6181396;23;20032;-64
2023/10/05 18:31:38;;;;;;;1999.90;999.90;;;;;;;;;;6181619;23;20005;-63
2023/10/05 18:34:04;;;;;;;1999.90;999.90;;;;;;;;;;6182153;23;20039;-63
2023/10/05 18:36:30;;;;;;;1999.90;999.90;;;;;;;;;;6182103;23;20001;-64
2023/10/05 18:38:56;;;;;;;1999.90;999.90;;;;;;;;;;6181627;23;20080;-63
2023/10/05 18:41:22;;;;;;;1999.90;999.90;;;;;;;;;;6181820;23;20005;-64
2023/10/05 18:43:49;;;;;;;1999.90;999.90;;;;;;;;;;6181287;23;20012;-65
2023/10/05 18:46:15;;;;;;;1999.90;999.90;;;;;;;;;;6181655;23;20026;-64
2023/10/05 18:48:42;;;;;;;1999.90;999.90;;;;;;;;;;6180942;23;20048;-64
2023/10/05 18:51:08;;;;;;;1999.90;999.90;;;;;;;;;;6180961;23;20005;-63
2023/10/05 18:53:37;;;;;;;1999.90;999.90;;;;;;;;;;6181202;23;20077;-65
2023/10/05 18:56:04;;;;;;;1999.90;999.90;;;;;;;;;;6181542;23;20020;-63
2023/10/05 18:58:31;;;;;;;1999.90;999.90;;;;;;;;;;6181680;23;20005;-64
2023/10/05 19:00:59;;;;;;;1999.90;999.90;;;;;;;;;;6183326;23;20008;-64
2023/10/05 19:03:26;;;;;;;1999.90;999.90;;;;;;;;;;6183655;23;20005;-64
2023/10/05 19:05:52;;;;;;;1999.90;999.90;;;;;;;;;;6184547;23;20037;-65
2023/10/05 19:08:19;;;;;;;1999.90;999.90;;;;;;;;;;6183364;23;20001;-66
2023/10/05 19:10:45;;;;;;;1999.90;999.90;;;;;;;;;;6183855;23;20005;-64
2023/10/05 19:13:11;;;;;;;1999.90;999.90;;;;;;;;;;6183599;23;20330;-65
2023/10/05 19:15:37;;;;;;;1999.90;999.90;;;;;;;;;;6183287;23;20442;-63